Time;durP1;ratioP1;P1;durP2;ratioP2;P2;SDS_P1;SDS_P2;PMS_P1;PMS_P2;Temp;Humidity;BMP_temperature;BMP_pressure;BME280_temperature;BME280_humidity;BME280_pressure;Samples;Min_cycle;Max_cycle;Signal;HPM_P1;HPM_P2
2023/07/02 00:00:28;;;;;;;0.00;0.00;;;15.20;99.90;;;;;;5006685;28;20046;-72
2023/07/02 00:02:53;;;;;;;0.00;0.00;;;15.10;99.90;;;;;;5005140;28;20406;-72
2023/07/02 00:05:19;;;;;;;0.00;0.00;;;15.00;99.90;;;;;;5021904;28;20441;-72
2023/07/02 00:07:45;;;;;;;0.00;0.00;;;15.00;99.90;;;;;;4998164;28;20034;-72
2023/07/02 00:10:11;;;;;;;0.00;0.00;;;15.00;99.90;;;;;;5003632;28;20537;-71
2023/07/02 00:12:36;;;;;;;0.00;0.00;;;15.00;99.90;;;;;;5006420;28;20034;-72
2023/07/02 00:15:03;;;;;;;0.10;0.05;;;15.00;99.90;;;;;;4997807;28;20133;-71
2023/07/02 00:17:29;;;;;;;0.00;0.00;;;15.00;99.90;;;;;;5004669;28;20052;-72
2023/07/02 00:19:55;;;;;;;0.00;0.00;;;15.00;99.90;;;;;;5032261;28;20037;-72
2023/07/02 00:22:21;;;;;;;0.00;0.00;;;15.00;99.90;;;;;;5006596;28;20045;-72
2023/07/02 00:24:46;;;;;;;0.00;0.00;;;15.00;99.90;;;;;;5010442;28;20041;-72
2023/07/02 00:27:12;;;;;;;0.00;0.00;;;15.10;99.90;;;;;;5001342;28;20044;-72
2023/07/02 00:29:38;;;;;;;0.13;0.00;;;15.10;99.90;;;;;;5006266;28;20120;-72
2023/07/02 00:32:04;;;;;;;0.00;0.00;;;15.10;99.90;;;;;;5022697;28;20116;-72
2023/07/02 00:34:30;;;;;;;0.08;0.00;;;15.10;99.90;;;;;;4998766;28;20125;-72
2023/07/02 00:36:55;;;;;;;0.00;0.00;;;15.00;99.90;;;;;;5025429;28;20037;-71
2023/07/02 00:39:21;;;;;;;0.00;0.00;;;15.10;99.90;;;;;;5004588;28;20076;-72
2023/07/02 00:41:47;;;;;;;0.00;0.00;;;15.00;99.90;;;;;;5005224;28;20045;-72
2023/07/02 00:44:13;;;;;;;0.00;0.00;;;15.00;99.90;;;;;;5022585;28;20540;-71
2023/07/02 00:46:39;;;;;;;0.00;0.00;;;15.00;99.90;;;;;;5005804;28;20037;-72
2023/07/02 00:49:05;;;;;;;0.00;0.00;;;14.90;99.90;;;;;;5003087;28;20044;-72
2023/07/02 00:51:31;;;;;;;0.00;0.00;;;14.90;99.90;;;;;;5003323;28;20042;-71
2023/07/02 00:53:58;;;;;;;0.10;0.10;;;14.80;99.90;;;;;;5002034;28;20056;-72
2023/07/02 00:56:26;;;;;;;0.77;0.00;;;14.70;99.90;;;;;;4996082;28;20046;-71
2023/07/02 00:58:58;;;;;;;0.43;0.00;;;14.70;99.90;;;;;;5000636;28;20050;-71
2023/07/02 01:01:25;;;;;;;0.00;0.00;;;14.60;99.90;;;;;;4991644;28;20417;-71
2023/07/02 01:04:03;;;;;;;0.00;0.00;;;14.50;99.90;;;;;;4998218;28;20073;-71
2023/07/02 01:06:33;;;;;;;0.00;0.00;;;14.40;99.90;;;;;;5020837;28;20132;-71
2023/07/02 01:09:01;;;;;;;0.00;0.00;;;14.40;99.90;;;;;;5006103;28;20555;-71
2023/07/02 01:11:50;;;;;;;0.00;0.00;;;14.30;99.90;;;;;;5004522;28;20086;-71
2023/07/02 01:14:38;;;;;;;0.22;0.20;;;14.20;99.90;;;;;;4999290;28;20033;-72
2023/07/02 01:17:06;;;;;;;0.00;0.00;;;14.10;99.90;;;;;;4999789;28;20085;-71
2023/07/02 01:19:51;;;;;;;0.00;0.00;;;14.00;99.90;;;;;;4995086;28;20139;-71
2023/07/02 01:22:22;;;;;;;0.30;0.20;;;13.90;99.90;;;;;;4998633;28;20049;-72
2023/07/02 01:24:48;;;;;;;0.00;0.00;;;13.80;99.90;;;;;;4999995;28;20497;-71
2023/07/02 01:27:15;;;;;;;0.20;0.10;;;13.70;99.90;;;;;;5002315;28;20142;-71
2023/07/02 01:29:41;;;;;;;0.00;0.00;;;13.70;99.90;;;;;;5005976;28;20069;-71
2023/07/02 01:32:10;;;;;;;0.00;0.00;;;13.60;99.90;;;;;;4995907;28;20129;-71
2023/07/02 01:34:36;;;;;;;0.00;0.00;;;13.60;99.90;;;;;;5001251;28;20038;-71
2023/07/02 01:37:03;;;;;;;0.00;0.00;;;13.50;99.90;;;;;;5001661;28;20120;-71
2023/07/02 01:39:29;;;;;;;0.00;0.00;;;13.50;99.90;;;;;;4990423;28;20460;-71
2023/07/02 01:42:07;;;;;;;0.60;0.35;;;13.40;99.90;;;;;;5008165;28;20508;-71
2023/07/02 01:44:32;;;;;;;0.00;0.00;;;13.40;99.90;;;;;;5006789;28;20045;-70
2023/07/02 01:46:58;;;;;;;0.00;0.00;;;13.30;99.90;;;;;;5022488;28;20117;-70
2023/07/02 01:49:24;;;;;;;0.00;0.00;;;13.20;99.90;;;;;;5000022;28;20038;-71
2023/07/02 01:51:51;;;;;;;0.00;0.00;;;13.20;99.90;;;;;;5015047;28;20041;-71
2023/07/02 01:54:18;;;;;;;0.08;0.03;;;13.10;99.90;;;;;;4989281;28;20533;-70
2023/07/02 01:56:43;;;;;;;0.08;0.08;;;13.10;99.90;;;;;;4998642;28;20405;-71
2023/07/02 01:59:09;;;;;;;0.00;0.00;;;13.10;99.90;;;;;;5003004;28;20045;-71
2023/07/02 02:01:35;;;;;;;0.20;0.20;;;13.00;99.90;;;;;;4995451;28;20042;-70
2023/07/02 02:04:00;;;;;;;0.10;0.03;;;12.90;99.90;;;;;;5001346;28;20042;-71
2023/07/02 02:06:26;;;;;;;0.00;0.00;;;12.90;99.90;;;;;;5000242;28;20034;-71
2023/07/02 02:08:52;;;;;;;0.00;0.00;;;12.90;99.90;;;;;;4997674;28;20053;-71
2023/07/02 02:11:17;;;;;;;0.00;0.00;;;12.80;99.90;;;;;;4995219;28;20034;-71
2023/07/02 02:13:43;;;;;;;0.35;0.30;;;12.80;99.90;;;;;;5001972;28;20105;-71
2023/07/02 02:16:09;;;;;;;0.10;0.10;;;12.70;99.90;;;;;;5002140;28;20065;-71
2023/07/02 02:18:35;;;;;;;0.00;0.00;;;12.70;99.90;;;;;;4997634;28;20042;-71
2023/07/02 02:21:00;;;;;;;0.10;0.10;;;12.70;99.90;;;;;;5001854;28;20500;-71
2023/07/02 02:23:26;;;;;;;0.00;0.00;;;12.60;99.90;;;;;;5003867;28;20041;-71
2023/07/02 02:25:52;;;;;;;0.00;0.00;;;12.60;99.90;;;;;;4998667;28;20045;-71
2023/07/02 02:28:17;;;;;;;0.03;0.00;;;12.60;99.90;;;;;;4981468;28;20521;-71
2023/07/02 02:30:43;;;;;;;0.60;0.22;;;12.50;99.90;;;;;;4996758;28;20033;-71
2023/07/02 02:33:09;;;;;;;0.20;0.10;;;12.50;99.90;;;;;;5004398;28;20072;-71
2023/07/02 02:35:34;;;;;;;0.00;0.00;;;12.50;99.90;;;;;;5001022;28;20046;-71
2023/07/02 02:38:04;;;;;;;0.00;0.00;;;12.40;99.90;;;;;;4998766;28;20062;-71
2023/07/02 02:40:30;;;;;;;0.05;0.00;;;12.40;99.90;;;;;;5005745;28;20202;-71
2023/07/02 02:42:55;;;;;;;0.00;0.00;;;12.40;99.90;;;;;;5000693;28;20103;-71
2023/07/02 02:45:21;;;;;;;0.00;0.00;;;12.40;99.90;;;;;;5004623;28;20049;-71
2023/07/02 02:47:47;;;;;;;0.00;0.00;;;12.30;99.90;;;;;;4995341;28;20454;-71
2023/07/02 02:50:13;;;;;;;0.00;0.00;;;12.30;99.90;;;;;;4997393;28;20054;-71
2023/07/02 02:52:39;;;;;;;0.00;0.00;;;12.30;99.90;;;;;;5017506;28;20034;-71
2023/07/02 02:55:06;;;;;;;0.10;0.10;;;12.20;99.90;;;;;;5001560;28;20101;-71
2023/07/02 02:57:33;;;;;;;0.40;0.20;;;12.30;99.90;;;;;;4994872;28;20054;-71
2023/07/02 02:59:59;;;;;;;0.00;0.00;;;12.20;99.90;;;;;;4998742;28;20053;-71
2023/07/02 03:02:24;;;;;;;0.00;0.00;;;12.30;99.90;;;;;;5021342;28;20034;-72
2023/07/02 03:04:50;;;;;;;0.03;0.00;;;12.30;99.90;;;;;;5006961;28;20128;-72
2023/07/02 03:07:16;;;;;;;0.00;0.00;;;12.30;99.90;;;;;;4996265;28;20501;-71
2023/07/02 03:09:42;;;;;;;0.10;0.10;;;12.40;99.90;;;;;;5007497;28;20115;-71
2023/07/02 03:12:08;;;;;;;0.00;0.00;;;12.40;99.90;;;;;;4999114;28;20550;-71
2023/07/02 03:14:33;;;;;;;0.00;0.00;;;12.40;99.90;;;;;;5019454;28;20059;-71
2023/07/02 03:16:59;;;;;;;0.00;0.00;;;12.40;99.90;;;;;;4997724;28;20033;-71
2023/07/02 03:19:25;;;;;;;0.55;0.00;;;12.40;99.90;;;;;;5009715;28;20092;-71
2023/07/02 03:21:50;;;;;;;0.30;0.30;;;12.40;99.90;;;;;;4999420;28;20050;-72
2023/07/02 03:24:17;;;;;;;0.10;0.10;;;12.40;99.90;;;;;;5003040;28;20048;-71
2023/07/02 03:26:43;;;;;;;0.00;0.00;;;12.30;99.90;;;;;;5008875;28;20046;-71
2023/07/02 03:29:09;;;;;;;0.00;0.00;;;12.40;99.90;;;;;;5010494;28;20056;-72
2023/07/02 03:31:35;;;;;;;0.00;0.00;;;12.40;99.90;;;;;;5005099;28;20095;-71
2023/07/02 03:34:07;;;;;;;0.00;0.00;;;12.40;99.90;;;;;;5013780;28;20034;-70
2023/07/02 03:36:33;;;;;;;0.25;0.15;;;12.40;99.90;;;;;;5023357;28;20098;-71
2023/07/02 03:38:59;;;;;;;0.00;0.00;;;12.40;99.90;;;;;;5004401;28;20573;-71
2023/07/02 03:41:25;;;;;;;0.00;0.00;;;12.40;99.90;;;;;;5011161;28;20050;-71
2023/07/02 03:43:50;;;;;;;0.00;0.00;;;12.40;99.90;;;;;;5011048;28;20133;-71
2023/07/02 03:46:16;;;;;;;0.00;0.00;;;12.40;99.90;;;;;;5000643;28;20184;-71
2023/07/02 03:48:42;;;;;;;0.00;0.00;;;12.40;99.90;;;;;;5003464;28;20050;-71
2023/07/02 03:51:08;;;;;;;0.52;0.20;;;12.40;99.90;;;;;;5007203;28;20510;-70
2023/07/02 03:53:33;;;;;;;0.00;0.00;;;12.30;99.90;;;;;;5000310;28;20034;-70
2023/07/02 03:55:59;;;;;;;0.00;0.00;;;12.30;99.90;;;;;;5000235;28;20134;-70
2023/07/02 03:58:26;;;;;;;0.00;0.00;;;12.30;99.90;;;;;;5010266;28;20042;-70
2023/07/02 04:00:52;;;;;;;0.00;0.00;;;12.30;99.90;;;;;;5001139;28;20042;-70
2023/07/02 04:03:17;;;;;;;0.00;0.00;;;12.30;99.90;;;;;;4998159;28;20049;-70
2023/07/02 04:05:44;;;;;;;0.00;0.00;;;12.30;99.90;;;;;;5004628;28;20030;-71
2023/07/02 04:08:10;;;;;;;0.00;0.00;;;12.30;99.90;;;;;;5002023;28;20122;-71
2023/07/02 04:10:36;;;;;;;0.05;0.05;;;12.30;99.90;;;;;;5009021;28;20442;-70
2023/07/02 04:13:02;;;;;;;0.08;0.08;;;12.30;99.90;;;;;;5002095;28;20199;-71
2023/07/02 04:15:28;;;;;;;0.00;0.00;;;12.40;99.90;;;;;;4984145;28;20414;-71
2023/07/02 04:17:54;;;;;;;0.10;0.10;;;12.40;99.90;;;;;;5004252;28;20210;-71
2023/07/02 04:20:20;;;;;;;0.00;0.00;;;12.40;99.90;;;;;;5007626;28;20049;-71
2023/07/02 04:22:46;;;;;;;0.00;0.00;;;12.50;99.90;;;;;;4997755;28;20129;-71
2023/07/02 04:25:16;;;;;;;0.00;0.00;;;12.50;99.90;;;;;;4991260;28;20110;-71
2023/07/02 04:27:43;;;;;;;0.00;0.00;;;12.70;99.90;;;;;;5004888;28;20049;-71
2023/07/02 04:30:14;;;;;;;0.20;0.20;;;12.90;99.90;;;;;;5004919;28;20109;-71
2023/07/02 04:32:40;;;;;;;0.30;0.10;;;13.10;99.90;;;;;;4998615;28;20421;-71
2023/07/02 04:35:07;;;;;;;0.20;0.13;;;13.20;99.90;;;;;;5001799;28;20038;-71
2023/07/02 04:37:33;;;;;;;0.38;0.20;;;13.30;99.90;;;;;;4989761;28;20045;-71
2023/07/02 04:39:59;;;;;;;0.10;0.10;;;13.40;99.90;;;;;;5024731;28;20575;-71
2023/07/02 04:42:27;;;;;;;0.43;0.30;;;13.40;99.90;;;;;;5002631;28;20046;-71
2023/07/02 04:44:54;;;;;;;0.00;0.00;;;13.50;99.90;;;;;;5002785;28;20053;-71
2023/07/02 04:47:20;;;;;;;0.10;0.10;;;13.50;99.90;;;;;;5009407;28;20113;-71
2023/07/02 04:49:46;;;;;;;0.10;0.10;;;13.50;99.90;;;;;;5008385;28;20101;-71
2023/07/02 04:52:11;;;;;;;0.00;0.00;;;13.50;99.90;;;;;;4984785;28;20029;-71
2023/07/02 04:54:37;;;;;;;0.70;0.32;;;13.50;99.90;;;;;;5008679;28;20030;-71
2023/07/02 04:57:03;;;;;;;0.00;0.00;;;13.50;99.90;;;;;;5005317;28;20034;-71
2023/07/02 04:59:29;;;;;;;0.00;0.00;;;13.40;99.90;;;;;;4986908;28;20121;-71
2023/07/02 05:01:55;;;;;;;0.00;0.00;;;13.60;99.90;;;;;;4996614;28;20077;-72
2023/07/02 05:04:21;;;;;;;0.08;0.05;;;14.00;99.90;;;;;;5002242;28;20049;-71
2023/07/02 05:06:47;;;;;;;0.22;0.10;;;14.40;99.90;;;;;;5005885;28;20052;-72
2023/07/02 05:09:12;;;;;;;0.17;0.05;;;14.90;99.90;;;;;;5004960;28;20053;-72
2023/07/02 05:11:38;;;;;;;0.00;0.00;;;15.40;99.90;;;;;;5003968;28;20486;-72
2023/07/02 05:14:04;;;;;;;0.03;0.03;;;15.60;99.90;;;;;;5018834;28;20041;-72
2023/07/02 05:16:30;;;;;;;0.28;0.15;;;15.60;99.90;;;;;;5011593;28;20049;-72
2023/07/02 05:18:56;;;;;;;0.32;0.32;;;15.70;99.90;;;;;;5015577;28;20041;-72
2023/07/02 05:21:22;;;;;;;0.22;0.22;;;15.90;99.90;;;;;;5003802;28;20093;-72
2023/07/02 05:23:48;;;;;;;0.20;0.13;;;15.90;99.90;;;;;;5007195;28;20073;-72
2023/07/02 05:26:14;;;;;;;0.00;0.00;;;15.80;99.90;;;;;;5007723;28;20046;-72
2023/07/02 05:28:39;;;;;;;0.03;0.00;;;15.70;99.90;;;;;;5004343;28;20053;-72
2023/07/02 05:31:05;;;;;;;0.00;0.00;;;15.70;99.90;;;;;;5011536;28;20029;-72
2023/07/02 05:33:32;;;;;;;0.52;0.30;;;15.70;99.90;;;;;;5012488;28;20064;-71
2023/07/02 05:35:58;;;;;;;0.00;0.00;;;15.70;99.90;;;;;;5017874;28;20057;-71
2023/07/02 05:38:24;;;;;;;0.35;0.32;;;15.80;99.90;;;;;;5016940;28;20042;-73
2023/07/02 05:40:50;;;;;;;0.00;0.00;;;15.90;99.90;;;;;;5010199;28;20153;-72
2023/07/02 05:43:16;;;;;;;0.10;0.08;;;16.00;99.90;;;;;;5014730;28;20049;-71
2023/07/02 05:45:42;;;;;;;0.00;0.00;;;16.10;99.90;;;;;;5033619;28;20045;-72
2023/07/02 05:48:07;;;;;;;0.05;0.03;;;16.10;99.90;;;;;;5006713;28;20117;-72
2023/07/02 05:50:33;;;;;;;0.47;0.25;;;16.10;99.90;;;;;;5006614;28;20081;-72
2023/07/02 05:52:59;;;;;;;0.00;0.00;;;16.10;99.90;;;;;;5014700;28;20048;-72
2023/07/02 05:55:25;;;;;;;0.32;0.15;;;16.10;99.90;;;;;;4997510;28;20521;-72
2023/07/02 05:57:51;;;;;;;1.33;0.55;;;16.10;99.90;;;;;;5014044;28;20076;-71
2023/07/02 06:00:16;;;;;;;0.00;0.00;;;16.10;99.90;;;;;;5010341;28;20038;-72
2023/07/02 06:02:42;;;;;;;0.10;0.10;;;16.30;99.90;;;;;;5030690;28;20052;-72
2023/07/02 06:05:08;;;;;;;0.17;0.17;;;16.40;99.90;;;;;;5005940;28;20068;-70
2023/07/02 06:07:34;;;;;;;0.30;0.30;;;16.50;99.90;;;;;;5024376;28;20048;-71
2023/07/02 06:09:59;;;;;;;1.13;0.25;;;16.60;99.90;;;;;;5007545;28;20045;-71
2023/07/02 06:12:25;;;;;;;0.63;0.45;;;16.60;99.90;;;;;;5012118;28;20064;-70
2023/07/02 06:14:51;;;;;;;0.10;0.10;;;16.70;99.90;;;;;;5029273;28;20037;-70
2023/07/02 06:17:17;;;;;;;0.25;0.25;;;16.80;99.90;;;;;;5007234;28;20065;-72
2023/07/02 06:19:44;;;;;;;0.17;0.17;;;16.90;99.90;;;;;;4994797;28;20387;-71
2023/07/02 06:22:10;;;;;;;0.35;0.32;;;17.10;99.90;;;;;;5031794;28;20041;-70
2023/07/02 06:24:36;;;;;;;3.45;0.45;;;17.10;99.90;;;;;;5031052;28;20093;-71
2023/07/02 06:27:02;;;;;;;0.60;0.60;;;17.10;99.90;;;;;;5018273;28;20038;-71
2023/07/02 06:29:28;;;;;;;0.88;0.30;;;17.10;99.90;;;;;;5004795;28;20054;-71
2023/07/02 06:31:54;;;;;;;1.17;0.77;;;17.00;99.90;;;;;;5029139;28;20049;-71
2023/07/02 06:34:20;;;;;;;1.38;0.52;;;17.00;99.90;;;;;;5010218;28;20080;-70
2023/07/02 06:36:46;;;;;;;0.15;0.15;;;16.90;99.90;;;;;;4999575;28;20125;-71
2023/07/02 06:39:11;;;;;;;4.28;0.85;;;16.80;99.90;;;;;;5001392;28;20115;-70
2023/07/02 06:41:37;;;;;;;1.98;0.45;;;16.80;99.90;;;;;;5008142;28;20429;-71
2023/07/02 06:44:04;;;;;;;0.10;0.10;;;17.00;99.90;;;;;;5009210;28;20041;-71
2023/07/02 06:46:30;;;;;;;0.82;0.55;;;17.10;99.90;;;;;;4998362;28;20117;-71
2023/07/02 06:48:56;;;;;;;0.60;0.30;;;17.30;99.90;;;;;;5027573;28;20410;-71
2023/07/02 06:51:22;;;;;;;1.98;0.50;;;17.50;99.90;;;;;;5010420;28;20046;-72
2023/07/02 06:53:48;;;;;;;0.30;0.20;;;17.70;99.90;;;;;;5027204;28;20045;-71
2023/07/02 06:56:14;;;;;;;0.10;0.10;;;17.80;99.90;;;;;;5010629;28;20106;-71
2023/07/02 06:58:42;;;;;;;0.40;0.32;;;17.80;99.90;;;;;;5023544;28;20071;-71
2023/07/02 07:01:08;;;;;;;1.35;0.73;;;17.80;99.90;;;;;;5024153;28;20125;-71
2023/07/02 07:03:34;;;;;;;0.40;0.25;;;17.60;99.90;;;;;;5034359;28;20126;-71
2023/07/02 07:06:00;;;;;;;0.05;0.05;;;17.50;99.90;;;;;;5007419;28;20042;-71
2023/07/02 07:08:26;;;;;;;0.00;0.00;;;17.40;99.90;;;;;;5011438;28;21985;-72
2023/07/02 07:10:51;;;;;;;0.55;0.30;;;17.20;99.90;;;;;;5032188;28;20044;-71
2023/07/02 07:13:17;;;;;;;0.20;0.10;;;17.10;99.90;;;;;;5025290;28;20019;-70
2023/07/02 07:15:43;;;;;;;0.00;0.00;;;17.00;99.90;;;;;;5027530;28;20053;-70
2023/07/02 07:18:09;;;;;;;1.20;0.38;;;17.00;99.90;;;;;;5010816;28;20048;-71
2023/07/02 07:20:35;;;;;;;0.00;0.00;;;17.10;99.90;;;;;;5015194;28;20058;-71
2023/07/02 07:23:03;;;;;;;0.45;0.20;;;17.30;99.90;;;;;;5009168;28;20046;-71
2023/07/02 07:25:29;;;;;;;1.60;0.90;;;17.60;99.90;;;;;;4999669;28;20041;-70
2023/07/02 07:27:54;;;;;;;1.10;0.80;;;17.80;99.90;;;;;;5030292;28;20042;-72
2023/07/02 07:30:23;;;;;;;0.35;0.32;;;17.90;99.90;;;;;;4993203;28;20490;-71
2023/07/02 07:32:53;;;;;;;1.33;0.05;;;18.20;99.90;;;;;;5002430;28;20042;-72
2023/07/02 07:35:27;;;;;;;1.90;0.65;;;18.30;99.90;;;;;;4998065;28;20121;-71
2023/07/02 07:38:00;;;;;;;0.30;0.20;;;18.30;99.90;;;;;;5006670;28;20057;-71
2023/07/02 07:40:35;;;;;;;0.00;0.00;;;18.30;99.90;;;;;;4999387;28;20235;-71
2023/07/02 07:43:14;;;;;;;0.40;0.40;;;18.40;99.90;;;;;;4999425;28;20305;-70
2023/07/02 07:45:44;;;;;;;0.00;0.00;;;18.60;99.90;;;;;;5008666;28;20046;-71
2023/07/02 07:48:10;;;;;;;0.30;0.20;;;18.60;99.90;;;;;;5000650;28;20744;-71
2023/07/02 07:50:35;;;;;;;0.10;0.00;;;18.60;99.90;;;;;;4998120;28;20438;-70
2023/07/02 07:53:01;;;;;;;0.00;0.00;;;18.60;99.90;;;;;;4996754;28;20033;-71
2023/07/02 07:55:27;;;;;;;2.63;0.73;;;18.60;99.90;;;;;;4994535;28;20633;-71
2023/07/02 07:57:53;;;;;;;2.33;0.65;;;18.60;99.90;;;;;;5006194;28;20046;-71
2023/07/02 08:00:19;;;;;;;0.10;0.10;;;18.40;99.90;;;;;;5002686;28;20546;-70
2023/07/02 08:02:48;;;;;;;0.20;0.20;;;18.20;99.90;;;;;;4992182;28;20046;-70
2023/07/02 08:05:13;;;;;;;0.45;0.20;;;18.20;99.90;;;;;;4996944;28;20056;-70
2023/07/02 08:07:43;;;;;;;1.45;0.38;;;18.30;99.90;;;;;;5002595;28;20050;-70
2023/07/02 08:10:09;;;;;;;0.20;0.20;;;18.60;99.90;;;;;;4994986;28;20621;-70
2023/07/02 08:12:34;;;;;;;0.43;0.15;;;18.80;99.90;;;;;;4992214;28;20075;-70
2023/07/02 08:15:00;;;;;;;0.13;0.13;;;19.00;99.90;;;;;;4999275;28;20037;-70
2023/07/02 08:17:26;;;;;;;0.10;0.10;;;19.00;99.90;;;;;;4995587;28;20038;-70
2023/07/02 08:19:52;;;;;;;0.00;0.00;;;19.00;99.90;;;;;;4998779;28;20050;-70
2023/07/02 08:22:18;;;;;;;0.00;0.00;;;18.80;99.90;;;;;;4989325;28;20035;-71
2023/07/02 08:24:44;;;;;;;0.13;0.03;;;18.70;99.90;;;;;;4995118;28;20490;-71
2023/07/02 08:27:13;;;;;;;0.00;0.00;;;18.50;99.90;;;;;;4999328;28;20034;-70
2023/07/02 08:29:39;;;;;;;0.00;0.00;;;18.40;99.90;;;;;;4992546;28;20050;-70
2023/07/02 08:32:05;;;;;;;0.32;0.32;;;18.40;99.90;;;;;;4991905;28;20042;-70
2023/07/02 08:34:30;;;;;;;0.40;0.20;;;18.40;99.90;;;;;;4994024;28;20347;-70
2023/07/02 08:36:56;;;;;;;0.25;0.20;;;18.60;99.90;;;;;;4996098;28;20479;-71
2023/07/02 08:39:22;;;;;;;1.25;0.55;;;18.70;99.90;;;;;;4993849;28;20280;-70
2023/07/02 08:41:48;;;;;;;0.00;0.00;;;18.80;99.90;;;;;;5005781;28;20049;-70
2023/07/02 08:44:18;;;;;;;0.20;0.10;;;18.90;99.90;;;;;;5000639;28;20055;-71
2023/07/02 08:46:44;;;;;;;0.00;0.00;;;18.80;99.90;;;;;;4983347;28;20050;-71
2023/07/02 08:49:10;;;;;;;0.40;0.20;;;18.60;99.90;;;;;;4997279;28;20153;-71
2023/07/02 08:51:37;;;;;;;0.25;0.25;;;18.50;99.90;;;;;;5020413;28;20391;-71
2023/07/02 08:54:03;;;;;;;2.50;0.52;;;18.30;99.90;;;;;;4998371;28;20045;-71
2023/07/02 08:56:29;;;;;;;0.85;0.22;;;18.20;99.90;;;;;;4996679;28;20030;-71
2023/07/02 08:58:55;;;;;;;0.00;0.00;;;18.10;99.90;;;;;;4993814;28;20046;-71
2023/07/02 09:01:21;;;;;;;0.03;0.00;;;18.00;99.90;;;;;;4999639;28;20389;-71
2023/07/02 09:03:48;;;;;;;0.20;0.20;;;18.00;99.90;;;;;;5001629;28;20051;-71
2023/07/02 09:06:17;;;;;;;0.45;0.10;;;18.00;99.90;;;;;;4999975;28;20133;-72
2023/07/02 09:08:43;;;;;;;0.60;0.17;;;18.00;99.90;;;;;;5005637;28;20046;-71
2023/07/02 09:11:17;;;;;;;1.25;0.60;;;18.00;99.90;;;;;;5003978;28;20485;-71
2023/07/02 09:13:47;;;;;;;0.52;0.13;;;18.10;99.90;;;;;;5004279;28;20051;-71
2023/07/02 09:16:26;;;;;;;0.65;0.22;;;18.20;99.90;;;;;;5003637;28;20080;-72
2023/07/02 09:19:12;;;;;;;0.75;0.00;;;18.60;99.90;;;;;;5009477;28;20282;-72
2023/07/02 09:21:48;;;;;;;0.25;0.08;;;19.20;99.90;;;;;;5016626;28;20099;-71
2023/07/02 09:24:18;;;;;;;0.40;0.10;;;20.00;99.90;;;;;;4999883;28;20076;-71
2023/07/02 09:26:49;;;;;;;0.00;0.00;;;20.40;99.90;;;;;;5011744;28;20045;-71
2023/07/02 09:29:35;;;;;;;0.35;0.25;;;20.40;99.90;;;;;;4995519;28;20402;-72
2023/07/02 09:32:07;;;;;;;0.57;0.32;;;20.10;99.90;;;;;;5021623;28;20084;-71
2023/07/02 09:34:41;;;;;;;0.15;0.08;;;19.80;99.90;;;;;;4997836;28;20112;-71
2023/07/02 09:37:07;;;;;;;0.32;0.13;;;19.60;99.90;;;;;;4993963;28;20081;-70
2023/07/02 09:39:34;;;;;;;0.10;0.10;;;19.50;99.90;;;;;;4995570;28;20046;-71
2023/07/02 09:42:01;;;;;;;0.17;0.00;;;19.60;99.90;;;;;;4998347;28;20053;-71
2023/07/02 09:44:35;;;;;;;0.00;0.00;;;19.60;99.90;;;;;;5038446;27;1269757;-70
2023/07/02 09:47:08;;;;;;;2.53;1.10;;;19.60;99.90;;;;;;5060851;28;20049;-70
2023/07/02 09:49:39;;;;;;;0.65;0.60;;;19.50;99.90;;;;;;5064098;28;20484;-72
2023/07/02 09:52:09;;;;;;;0.20;0.15;;;19.50;99.90;;;;;;5069223;28;20456;-71
2023/07/02 09:54:36;;;;;;;0.22;0.22;;;19.40;99.90;;;;;;5062884;28;20076;-71
2023/07/02 09:57:03;;;;;;;2.08;0.55;;;19.40;99.90;;;;;;5045946;28;20041;-72
2023/07/02 09:59:29;;;;;;;0.68;0.20;;;19.40;99.90;;;;;;5043592;28;20091;-71
2023/07/02 10:01:56;;;;;;;1.08;0.55;;;19.40;99.90;;;;;;5044748;28;20044;-71
2023/07/02 10:04:25;;;;;;;0.82;0.38;;;19.50;99.90;;;;;;5039856;28;20482;-71
2023/07/02 10:06:53;;;;;;;0.35;0.35;;;19.60;99.90;;;;;;5035589;28;20074;-71
2023/07/02 10:09:20;;;;;;;0.90;0.38;;;19.60;99.90;;;;;;5041971;28;20477;-71
2023/07/02 10:11:46;;;;;;;0.38;0.10;;;19.50;99.90;;;;;;5034378;28;20045;-71
2023/07/02 10:14:12;;;;;;;0.00;0.00;;;19.40;99.90;;;;;;5033021;28;20037;-71
2023/07/02 10:16:54;;;;;;;0.73;0.30;;;19.30;99.90;;;;;;5034083;28;20041;-71
2023/07/02 10:19:21;;;;;;;0.60;0.45;;;19.10;99.90;;;;;;5039703;28;20037;-71
2023/07/02 10:22:00;;;;;;;4.13;0.45;;;18.90;99.90;;;;;;5036285;28;20044;-71
2023/07/02 10:24:26;;;;;;;0.30;0.28;;;18.90;99.90;;;;;;5034554;28;20092;-70
2023/07/02 10:26:58;;;;;;;0.00;0.00;;;18.90;99.90;;;;;;5034955;28;20069;-70
2023/07/02 10:29:25;;;;;;;0.03;0.00;;;19.00;99.90;;;;;;5034764;28;20540;-70
2023/07/02 10:31:53;;;;;;;0.00;0.00;;;19.20;99.90;;;;;;5038927;28;20509;-70
2023/07/02 10:34:32;;;;;;;0.43;0.43;;;19.40;99.90;;;;;;5039364;28;20451;-71
2023/07/02 10:37:00;;;;;;;0.15;0.05;;;19.90;99.90;;;;;;5037097;28;20064;-71
2023/07/02 10:39:26;;;;;;;2.80;0.65;;;20.20;99.90;;;;;;5037695;28;20481;-70
2023/07/02 10:41:52;;;;;;;0.47;0.35;;;20.50;99.90;;;;;;5045520;28;20044;-72
2023/07/02 10:44:20;;;;;;;3.30;0.65;;;20.30;99.90;;;;;;5042665;28;20053;-72
2023/07/02 10:46:47;;;;;;;0.20;0.20;;;20.10;99.90;;;;;;5028381;28;20033;-72
2023/07/02 10:49:17;;;;;;;0.00;0.00;;;19.80;99.90;;;;;;5029185;28;20025;-70
2023/07/02 10:51:43;;;;;;;0.45;0.38;;;19.50;99.90;;;;;;5040454;28;20065;-71
2023/07/02 10:54:09;;;;;;;0.60;0.35;;;19.30;99.90;;;;;;5040957;28;20131;-70
2023/07/02 10:56:35;;;;;;;0.43;0.30;;;19.40;99.90;;;;;;5031247;28;20046;-70
2023/07/02 10:59:03;;;;;;;0.25;0.20;;;19.50;99.90;;;;;;5023500;28;20213;-71
2023/07/02 11:01:31;;;;;;;0.30;0.15;;;19.50;99.90;;;;;;5023811;28;20048;-72
2023/07/02 11:04:00;;;;;;;2.47;1.17;;;19.70;99.90;;;;;;5025711;28;20119;-71
2023/07/02 11:06:27;;;;;;;0.30;0.30;;;19.90;99.90;;;;;;5028870;28;20087;-71
2023/07/02 11:08:55;;;;;;;6.30;1.08;;;19.90;99.90;;;;;;5028729;28;20081;-70
2023/07/02 11:11:21;;;;;;;0.40;0.30;;;19.90;99.90;;;;;;5030577;28;20333;-70
2023/07/02 11:13:49;;;;;;;0.43;0.25;;;19.70;99.90;;;;;;5013207;28;20041;-70
2023/07/02 11:16:29;;;;;;;1.13;0.40;;;19.60;99.90;;;;;;5030739;28;20385;-70
2023/07/02 11:19:15;;;;;;;0.63;0.47;;;19.50;99.90;;;;;;5031098;28;20049;-70
2023/07/02 11:21:52;;;;;;;0.08;0.03;;;19.40;99.90;;;;;;5030476;28;20570;-71
2023/07/02 11:24:36;;;;;;;0.10;0.10;;;19.40;99.90;;;;;;5029110;28;20080;-71
2023/07/02 11:27:05;;;;;;;0.82;0.63;;;19.30;99.90;;;;;;5026418;28;20041;-71
2023/07/02 11:29:32;;;;;;;0.40;0.20;;;19.20;99.90;;;;;;5018863;28;20041;-71
2023/07/02 11:32:06;;;;;;;0.10;0.10;;;19.10;99.90;;;;;;5014192;28;20088;-71
2023/07/02 11:34:32;;;;;;;0.22;0.22;;;19.10;99.90;;;;;;5007170;28;20046;-71
2023/07/02 11:36:58;;;;;;;1.35;0.32;;;19.20;99.90;;;;;;5020053;28;20560;-71
2023/07/02 11:39:24;;;;;;;0.20;0.20;;;19.40;99.90;;;;;;5022045;28;20091;-71
2023/07/02 11:41:50;;;;;;;0.20;0.17;;;19.80;99.90;;;;;;5020776;28;20050;-71
2023/07/02 11:44:17;;;;;;;0.03;0.03;;;20.00;99.90;;;;;;5014908;28;20049;-71
2023/07/02 11:46:44;;;;;;;0.98;0.63;;;20.20;99.90;;;;;;5021458;28;20049;-67
2023/07/02 11:49:10;;;;;;;0.98;0.73;;;20.70;99.90;;;;;;5026174;28;20037;-68
2023/07/02 11:51:39;;;;;;;0.15;0.15;;;21.10;99.90;;;;;;5012601;28;20132;-67
2023/07/02 11:54:05;;;;;;;0.45;0.40;;;21.00;99.90;;;;;;5016928;28;20060;-68
2023/07/02 11:56:32;;;;;;;0.00;0.00;;;21.10;99.90;;;;;;5017918;28;20127;-68
2023/07/02 11:58:57;;;;;;;1.45;0.35;;;21.40;99.90;;;;;;5028325;28;20607;-66
2023/07/02 12:01:23;;;;;;;0.00;0.00;;;21.70;99.90;;;;;;5028275;28;20135;-68
2023/07/02 12:03:49;;;;;;;0.43;0.30;;;21.60;98.10;;;;;;5020376;28;20521;-67
2023/07/02 12:06:15;;;;;;;0.15;0.10;;;21.40;99.90;;;;;;5026139;28;20168;-68
2023/07/02 12:08:41;;;;;;;0.05;0.05;;;21.20;97.90;;;;;;5019310;28;20042;-68
2023/07/02 12:11:07;;;;;;;0.00;0.00;;;21.00;95.20;;;;;;5020014;28;20445;-67
2023/07/02 12:13:33;;;;;;;0.60;0.43;;;20.80;98.50;;;;;;5023036;28;20041;-67
2023/07/02 12:15:59;;;;;;;0.00;0.00;;;20.80;97.70;;;;;;5019914;28;20039;-67
2023/07/02 12:18:24;;;;;;;0.20;0.20;;;21.30;99.90;;;;;;5023575;28;20151;-67
2023/07/02 12:20:50;;;;;;;0.17;0.00;;;21.90;98.50;;;;;;5017301;28;20534;-67
2023/07/02 12:23:16;;;;;;;1.33;0.95;;;22.60;97.80;;;;;;5020499;28;20132;-67
2023/07/02 12:25:42;;;;;;;0.00;0.00;;;23.00;95.70;;;;;;5020738;28;20486;-67
2023/07/02 12:28:07;;;;;;;0.20;0.10;;;23.40;97.60;;;;;;5014924;28;20124;-68
2023/07/02 12:30:33;;;;;;;0.20;0.20;;;23.50;97.10;;;;;;5017275;28;20041;-67
2023/07/02 12:32:59;;;;;;;0.28;0.10;;;23.20;90.80;;;;;;5017959;28;20057;-68
2023/07/02 12:35:25;;;;;;;0.10;0.10;;;22.90;92.50;;;;;;5024361;28;20045;-67
2023/07/02 12:37:52;;;;;;;0.47;0.40;;;22.80;91.00;;;;;;5020084;28;20579;-67
2023/07/02 12:40:19;;;;;;;0.05;0.00;;;22.90;94.50;;;;;;5023492;28;20040;-67
2023/07/02 12:42:46;;;;;;;0.10;0.05;;;22.60;90.50;;;;;;5027814;28;20045;-68
2023/07/02 12:45:12;;;;;;;0.00;0.00;;;22.20;90.80;;;;;;5024269;28;20492;-67
2023/07/02 12:47:40;;;;;;;0.00;0.00;;;21.80;92.30;;;;;;5023850;28;20124;-68